sensor_id;sensor_type;location;lat;lon;timestamp;P1;durP1;ratioP1;P2;durP2;ratioP2
22634;SDS011;11484;50.858;4.384;2023-05-19T00:00:16;9.30;;;4.97;;
22634;SDS011;11484;50.858;4.384;2023-05-19T00:02:43;8.18;;;4.72;;
22634;SDS011;11484;50.858;4.384;2023-05-19T00:05:10;11.40;;;5.15;;
22634;SDS011;11484;50.858;4.384;2023-05-19T00:07:42;13.65;;;5.65;;
22634;SDS011;11484;50.858;4.384;2023-05-19T00:10:09;8.98;;;4.85;;
22634;SDS011;11484;50.858;4.384;2023-05-19T00:12:36;13.38;;;5.40;;
22634;SDS011;11484;50.858;4.384;2023-05-19T00:15:02;11.45;;;5.97;;
22634;SDS011;11484;50.858;4.384;2023-05-19T00:17:28;9.30;;;5.28;;
22634;SDS011;11484;50.858;4.384;2023-05-19T00:19:53;10.48;;;6.05;;
22634;SDS011;11484;50.858;4.384;2023-05-19T00:22:19;9.15;;;6.05;;
22634;SDS011;11484;50.858;4.384;2023-05-19T00:24:45;8.70;;;5.13;;
22634;SDS011;11484;50.858;4.384;2023-05-19T00:27:10;10.93;;;5.30;;
22634;SDS011;11484;50.858;4.384;2023-05-19T00:29:36;8.65;;;5.28;;
22634;SDS011;11484;50.858;4.384;2023-05-19T00:32:02;9.93;;;5.70;;
22634;SDS011;11484;50.858;4.384;2023-05-19T00:34:27;9.82;;;5.43;;
22634;SDS011;11484;50.858;4.384;2023-05-19T00:36:53;13.15;;;6.07;;
22634;SDS011;11484;50.858;4.384;2023-05-19T00:39:19;11.32;;;5.70;;
22634;SDS011;11484;50.858;4.384;2023-05-19T00:41:44;12.80;;;5.60;;
22634;SDS011;11484;50.858;4.384;2023-05-19T00:44:10;12.93;;;6.72;;
22634;SDS011;11484;50.858;4.384;2023-05-19T00:46:36;11.57;;;5.78;;
22634;SDS011;11484;50.858;4.384;2023-05-19T00:49:02;8.63;;;5.90;;
22634;SDS011;11484;50.858;4.384;2023-05-19T00:51:27;9.30;;;5.80;;
22634;SDS011;11484;50.858;4.384;2023-05-19T00:53:53;9.93;;;5.88;;
22634;SDS011;11484;50.858;4.384;2023-05-19T00:56:20;8.90;;;5.90;;
22634;SDS011;11484;50.858;4.384;2023-05-19T00:58:47;12.02;;;5.90;;
22634;SDS011;11484;50.858;4.384;2023-05-19T01:01:15;9.40;;;5.60;;
22634;SDS011;11484;50.858;4.384;2023-05-19T01:03:41;8.95;;;5.65;;
22634;SDS011;11484;50.858;4.384;2023-05-19T01:06:08;8.20;;;4.95;;
22634;SDS011;11484;50.858;4.384;2023-05-19T01:08:34;8.10;;;5.15;;
22634;SDS011;11484;50.858;4.384;2023-05-19T01:11:01;9.98;;;6.03;;
22634;SDS011;11484;50.858;4.384;2023-05-19T01:13:31;9.45;;;5.60;;
22634;SDS011;11484;50.858;4.384;2023-05-19T01:18:37;9.63;;;5.95;;
22634;SDS011;11484;50.858;4.384;2023-05-19T01:23:54;10.18;;;5.57;;
22634;SDS011;11484;50.858;4.384;2023-05-19T01:26:48;11.98;;;6.45;;
22634;SDS011;11484;50.858;4.384;2023-05-19T01:32:34;11.75;;;6.43;;
22634;SDS011;11484;50.858;4.384;2023-05-19T01:35:02;9.40;;;6.10;;
22634;SDS011;11484;50.858;4.384;2023-05-19T01:37:30;12.70;;;6.75;;
22634;SDS011;11484;50.858;4.384;2023-05-19T01:39:56;12.27;;;6.65;;
22634;SDS011;11484;50.858;4.384;2023-05-19T01:42:22;10.98;;;6.50;;
22634;SDS011;11484;50.858;4.384;2023-05-19T01:44:48;10.73;;;6.60;;
22634;SDS011;11484;50.858;4.384;2023-05-19T01:47:15;10.85;;;6.55;;
22634;SDS011;11484;50.858;4.384;2023-05-19T01:49:41;14.68;;;6.82;;
22634;SDS011;11484;50.858;4.384;2023-05-19T01:52:06;13.65;;;6.15;;
22634;SDS011;11484;50.858;4.384;2023-05-19T01:54:32;15.40;;;6.80;;
22634;SDS011;11484;50.858;4.384;2023-05-19T01:57:09;10.77;;;6.88;;
22634;SDS011;11484;50.858;4.384;2023-05-19T02:05:33;11.63;;;7.07;;
22634;SDS011;11484;50.858;4.384;2023-05-19T02:08:24;9.32;;;6.80;;
22634;SDS011;11484;50.858;4.384;2023-05-19T02:10:56;11.05;;;7.00;;
22634;SDS011;11484;50.858;4.384;2023-05-19T02:13:26;10.10;;;6.97;;
22634;SDS011;11484;50.858;4.384;2023-05-19T02:15:56;12.65;;;7.15;;
22634;SDS011;11484;50.858;4.384;2023-05-19T02:18:28;13.60;;;6.68;;
22634;SDS011;11484;50.858;4.384;2023-05-19T02:20:54;12.85;;;7.00;;
22634;SDS011;11484;50.858;4.384;2023-05-19T02:23:20;11.65;;;6.85;;
22634;SDS011;11484;50.858;4.384;2023-05-19T02:25:46;15.05;;;7.15;;
22634;SDS011;11484;50.858;4.384;2023-05-19T02:28:11;10.50;;;6.72;;
22634;SDS011;11484;50.858;4.384;2023-05-19T02:30:37;9.82;;;6.50;;
22634;SDS011;11484;50.858;4.384;2023-05-19T02:33:03;11.63;;;6.95;;
22634;SDS011;11484;50.858;4.384;2023-05-19T02:35:30;11.13;;;7.15;;
22634;SDS011;11484;50.858;4.384;2023-05-19T02:37:56;13.48;;;7.05;;
22634;SDS011;11484;50.858;4.384;2023-05-19T02:40:22;12.25;;;7.00;;
22634;SDS011;11484;50.858;4.384;2023-05-19T02:42:48;11.00;;;7.13;;
22634;SDS011;11484;50.858;4.384;2023-05-19T02:45:14;11.48;;;7.32;;
22634;SDS011;11484;50.858;4.384;2023-05-19T02:47:40;13.85;;;7.60;;
22634;SDS011;11484;50.858;4.384;2023-05-19T02:50:06;12.85;;;7.13;;
22634;SDS011;11484;50.858;4.384;2023-05-19T02:52:32;14.68;;;7.90;;
22634;SDS011;11484;50.858;4.384;2023-05-19T02:54:58;11.13;;;7.30;;
22634;SDS011;11484;50.858;4.384;2023-05-19T02:57:23;13.23;;;7.38;;
22634;SDS011;11484;50.858;4.384;2023-05-19T02:59:50;10.73;;;7.50;;
22634;SDS011;11484;50.858;4.384;2023-05-19T03:02:16;11.60;;;7.57;;
22634;SDS011;11484;50.858;4.384;2023-05-19T03:04:42;12.05;;;7.90;;
22634;SDS011;11484;50.858;4.384;2023-05-19T03:07:08;11.68;;;7.68;;
22634;SDS011;11484;50.858;4.384;2023-05-19T03:09:37;14.93;;;7.80;;
22634;SDS011;11484;50.858;4.384;2023-05-19T03:12:03;15.80;;;7.85;;
22634;SDS011;11484;50.858;4.384;2023-05-19T03:14:31;13.38;;;7.80;;
22634;SDS011;11484;50.858;4.384;2023-05-19T03:17:01;13.85;;;8.18;;
22634;SDS011;11484;50.858;4.384;2023-05-19T03:19:27;14.05;;;7.68;;
22634;SDS011;11484;50.858;4.384;2023-05-19T03:21:53;12.63;;;7.95;;
22634;SDS011;11484;50.858;4.384;2023-05-19T03:24:20;13.90;;;8.02;;
22634;SDS011;11484;50.858;4.384;2023-05-19T03:26:46;16.85;;;8.50;;
22634;SDS011;11484;50.858;4.384;2023-05-19T03:29:11;14.27;;;7.90;;
22634;SDS011;11484;50.858;4.384;2023-05-19T03:31:37;11.25;;;7.50;;
22634;SDS011;11484;50.858;4.384;2023-05-19T03:34:03;13.05;;;8.07;;
22634;SDS011;11484;50.858;4.384;2023-05-19T03:36:28;14.00;;;8.10;;
22634;SDS011;11484;50.858;4.384;2023-05-19T03:38:57;12.30;;;8.00;;
22634;SDS011;11484;50.858;4.384;2023-05-19T03:41:23;15.07;;;7.28;;
22634;SDS011;11484;50.858;4.384;2023-05-19T03:43:48;16.67;;;8.27;;
22634;SDS011;11484;50.858;4.384;2023-05-19T03:46:14;13.38;;;7.93;;
22634;SDS011;11484;50.858;4.384;2023-05-19T03:48:40;13.43;;;7.97;;
22634;SDS011;11484;50.858;4.384;2023-05-19T03:51:05;15.88;;;8.38;;
22634;SDS011;11484;50.858;4.384;2023-05-19T03:53:33;14.63;;;7.40;;
22634;SDS011;11484;50.858;4.384;2023-05-19T03:55:59;12.30;;;8.07;;
22634;SDS011;11484;50.858;4.384;2023-05-19T03:58:25;11.25;;;7.63;;
22634;SDS011;11484;50.858;4.384;2023-05-19T04:00:50;13.98;;;8.18;;
22634;SDS011;11484;50.858;4.384;2023-05-19T04:03:16;12.38;;;7.63;;
22634;SDS011;11484;50.858;4.384;2023-05-19T04:05:42;15.25;;;8.32;;
22634;SDS011;11484;50.858;4.384;2023-05-19T04:08:07;16.15;;;8.10;;
22634;SDS011;11484;50.858;4.384;2023-05-19T04:10:33;12.88;;;8.05;;
22634;SDS011;11484;50.858;4.384;2023-05-19T04:12:59;16.00;;;8.05;;
22634;SDS011;11484;50.858;4.384;2023-05-19T04:15:25;15.68;;;8.63;;
22634;SDS011;11484;50.858;4.384;2023-05-19T04:17:50;16.23;;;8.55;;
22634;SDS011;11484;50.858;4.384;2023-05-19T04:20:16;11.27;;;7.88;;
22634;SDS011;11484;50.858;4.384;2023-05-19T04:22:42;15.35;;;8.80;;
22634;SDS011;11484;50.858;4.384;2023-05-19T04:25:08;13.20;;;8.73;;
22634;SDS011;11484;50.858;4.384;2023-05-19T04:27:34;13.13;;;8.55;;
22634;SDS011;11484;50.858;4.384;2023-05-19T04:30:06;15.40;;;8.10;;
22634;SDS011;11484;50.858;4.384;2023-05-19T04:32:32;16.30;;;8.10;;
22634;SDS011;11484;50.858;4.384;2023-05-19T04:34:58;16.50;;;9.25;;
22634;SDS011;11484;50.858;4.384;2023-05-19T04:37:24;14.98;;;8.27;;
22634;SDS011;11484;50.858;4.384;2023-05-19T04:39:50;18.60;;;8.68;;
22634;SDS011;11484;50.858;4.384;2023-05-19T04:42:16;14.70;;;8.45;;
22634;SDS011;11484;50.858;4.384;2023-05-19T04:44:45;15.73;;;8.82;;
22634;SDS011;11484;50.858;4.384;2023-05-19T04:47:13;16.38;;;8.60;;
22634;SDS011;11484;50.858;4.384;2023-05-19T04:49:39;15.90;;;9.02;;
22634;SDS011;11484;50.858;4.384;2023-05-19T04:52:08;15.90;;;8.75;;
22634;SDS011;11484;50.858;4.384;2023-05-19T04:54:35;15.30;;;8.93;;
22634;SDS011;11484;50.858;4.384;2023-05-19T04:57:02;14.35;;;8.23;;
22634;SDS011;11484;50.858;4.384;2023-05-19T04:59:28;14.80;;;8.43;;
22634;SDS011;11484;50.858;4.384;2023-05-19T05:01:53;14.90;;;9.15;;
22634;SDS011;11484;50.858;4.384;2023-05-19T05:04:20;18.83;;;9.00;;
22634;SDS011;11484;50.858;4.384;2023-05-19T05:06:46;14.55;;;8.60;;
22634;SDS011;11484;50.858;4.384;2023-05-19T05:09:16;12.57;;;7.85;;
22634;SDS011;11484;50.858;4.384;2023-05-19T05:11:43;16.83;;;9.55;;
22634;SDS011;11484;50.858;4.384;2023-05-19T05:14:09;16.38;;;8.10;;
22634;SDS011;11484;50.858;4.384;2023-05-19T05:16:35;16.17;;;8.38;;
22634;SDS011;11484;50.858;4.384;2023-05-19T05:19:01;13.55;;;8.52;;
22634;SDS011;11484;50.858;4.384;2023-05-19T05:21:27;14.05;;;8.52;;
22634;SDS011;11484;50.858;4.384;2023-05-19T05:23:54;13.70;;;8.68;;
22634;SDS011;11484;50.858;4.384;2023-05-19T05:26:20;15.10;;;8.95;;
22634;SDS011;11484;50.858;4.384;2023-05-19T05:28:49;15.85;;;8.38;;
22634;SDS011;11484;50.858;4.384;2023-05-19T05:31:14;15.55;;;8.77;;
22634;SDS011;11484;50.858;4.384;2023-05-19T05:33:41;16.48;;;9.23;;
22634;SDS011;11484;50.858;4.384;2023-05-19T05:36:06;17.58;;;9.38;;
22634;SDS011;11484;50.858;4.384;2023-05-19T05:38:33;15.25;;;9.13;;
22634;SDS011;11484;50.858;4.384;2023-05-19T05:41:00;16.70;;;9.00;;
22634;SDS011;11484;50.858;4.384;2023-05-19T05:43:27;15.82;;;9.07;;
22634;SDS011;11484;50.858;4.384;2023-05-19T05:45:53;16.27;;;9.57;;
22634;SDS011;11484;50.858;4.384;2023-05-19T05:48:19;12.57;;;8.23;;
22634;SDS011;11484;50.858;4.384;2023-05-19T05:50:45;13.77;;;8.02;;
22634;SDS011;11484;50.858;4.384;2023-05-19T05:53:17;14.30;;;7.90;;
22634;SDS011;11484;50.858;4.384;2023-05-19T05:55:47;12.15;;;7.97;;
22634;SDS011;11484;50.858;4.384;2023-05-19T05:58:13;13.80;;;7.80;;
22634;SDS011;11484;50.858;4.384;2023-05-19T06:00:40;14.85;;;8.70;;
22634;SDS011;11484;50.858;4.384;2023-05-19T06:03:09;14.93;;;8.60;;
22634;SDS011;11484;50.858;4.384;2023-05-19T06:05:35;13.25;;;8.30;;
22634;SDS011;11484;50.858;4.384;2023-05-19T06:08:02;13.30;;;7.97;;
22634;SDS011;11484;50.858;4.384;2023-05-19T06:10:28;15.07;;;7.68;;
22634;SDS011;11484;50.858;4.384;2023-05-19T06:12:53;14.25;;;7.18;;
22634;SDS011;11484;50.858;4.384;2023-05-19T06:15:20;12.00;;;7.32;;
22634;SDS011;11484;50.858;4.384;2023-05-19T06:17:46;11.18;;;7.00;;
22634;SDS011;11484;50.858;4.384;2023-05-19T06:20:12;10.73;;;6.70;;
22634;SDS011;11484;50.858;4.384;2023-05-19T06:22:38;13.27;;;7.65;;
22634;SDS011;11484;50.858;4.384;2023-05-19T06:25:04;10.10;;;6.90;;
22634;SDS011;11484;50.858;4.384;2023-05-19T06:27:31;9.02;;;6.05;;
22634;SDS011;11484;50.858;4.384;2023-05-19T06:29:56;13.05;;;7.07;;
22634;SDS011;11484;50.858;4.384;2023-05-19T06:32:22;11.45;;;6.63;;
22634;SDS011;11484;50.858;4.384;2023-05-19T06:34:48;11.98;;;6.75;;
22634;SDS011;11484;50.858;4.384;2023-05-19T06:37:19;9.23;;;6.38;;
22634;SDS011;11484;50.858;4.384;2023-05-19T06:39:51;8.93;;;6.38;;
22634;SDS011;11484;50.858;4.384;2023-05-19T06:42:18;8.73;;;6.80;;
22634;SDS011;11484;50.858;4.384;2023-05-19T06:47:14;10.38;;;6.40;;
22634;SDS011;11484;50.858;4.384;2023-05-19T06:49:40;10.73;;;6.10;;
22634;SDS011;11484;50.858;4.384;2023-05-19T06:52:06;11.82;;;6.25;;
22634;SDS011;11484;50.858;4.384;2023-05-19T06:54:32;8.82;;;5.65;;
22634;SDS011;11484;50.858;4.384;2023-05-19T06:56:58;7.68;;;5.65;;
22634;SDS011;11484;50.858;4.384;2023-05-19T06:59:23;10.32;;;6.78;;
22634;SDS011;11484;50.858;4.384;2023-05-19T07:01:49;11.02;;;7.00;;
22634;SDS011;11484;50.858;4.384;2023-05-19T07:04:15;9.23;;;6.25;;
22634;SDS011;11484;50.858;4.384;2023-05-19T07:06:40;10.13;;;6.25;;
22634;SDS011;11484;50.858;4.384;2023-05-19T07:09:06;11.20;;;6.35;;
22634;SDS011;11484;50.858;4.384;2023-05-19T07:11:32;11.85;;;6.47;;
22634;SDS011;11484;50.858;4.384;2023-05-19T07:13:58;7.35;;;6.10;;
22634;SDS011;11484;50.858;4.384;2023-05-19T07:16:24;9.73;;;6.10;;
22634;SDS011;11484;50.858;4.384;2023-05-19T07:18:50;10.50;;;6.25;;
22634;SDS011;11484;50.858;4.384;2023-05-19T07:21:15;8.95;;;5.93;;
22634;SDS011;11484;50.858;4.384;2023-05-19T07:23:41;9.43;;;5.93;;
22634;SDS011;11484;50.858;4.384;2023-05-19T07:26:07;11.45;;;6.53;;
22634;SDS011;11484;50.858;4.384;2023-05-19T07:28:32;9.93;;;5.88;;
22634;SDS011;11484;50.858;4.384;2023-05-19T07:30:58;8.25;;;5.88;;
22634;SDS011;11484;50.858;4.384;2023-05-19T07:33:24;8.75;;;6.20;;
22634;SDS011;11484;50.858;4.384;2023-05-19T07:35:51;11.77;;;7.18;;
22634;SDS011;11484;50.858;4.384;2023-05-19T07:38:17;11.38;;;6.40;;
22634;SDS011;11484;50.858;4.384;2023-05-19T07:40:43;10.02;;;5.90;;
22634;SDS011;11484;50.858;4.384;2023-05-19T07:43:08;9.95;;;6.88;;
22634;SDS011;11484;50.858;4.384;2023-05-19T07:45:35;10.77;;;6.68;;
22634;SDS011;11484;50.858;4.384;2023-05-19T07:48:01;14.77;;;9.18;;
22634;SDS011;11484;50.858;4.384;2023-05-19T07:50:27;12.32;;;6.50;;
22634;SDS011;11484;50.858;4.384;2023-05-19T07:52:53;7.53;;;5.40;;
22634;SDS011;11484;50.858;4.384;2023-05-19T07:55:18;9.45;;;5.35;;
22634;SDS011;11484;50.858;4.384;2023-05-19T07:57:47;8.68;;;5.80;;
22634;SDS011;11484;50.858;4.384;2023-05-19T08:00:15;8.40;;;5.75;;
22634;SDS011;11484;50.858;4.384;2023-05-19T08:02:41;10.20;;;5.85;;
22634;SDS011;11484;50.858;4.384;2023-05-19T08:05:08;6.90;;;5.45;;
22634;SDS011;11484;50.858;4.384;2023-05-19T08:07:34;8.00;;;5.20;;
22634;SDS011;11484;50.858;4.384;2023-05-19T08:10:00;7.00;;;5.60;;
22634;SDS011;11484;50.858;4.384;2023-05-19T08:12:26;7.85;;;5.60;;
22634;SDS011;11484;50.858;4.384;2023-05-19T08:14:52;7.60;;;5.55;;
22634;SDS011;11484;50.858;4.384;2023-05-19T08:17:18;11.60;;;5.43;;
22634;SDS011;11484;50.858;4.384;2023-05-19T08:19:43;8.40;;;5.88;;
22634;SDS011;11484;50.858;4.384;2023-05-19T08:22:09;8.23;;;5.28;;
22634;SDS011;11484;50.858;4.384;2023-05-19T08:24:35;8.32;;;5.10;;
22634;SDS011;11484;50.858;4.384;2023-05-19T08:27:01;7.53;;;5.38;;
22634;SDS011;11484;50.858;4.384;2023-05-19T08:29:28;8.98;;;5.40;;
22634;SDS011;11484;50.858;4.384;2023-05-19T08:31:54;7.63;;;5.18;;
22634;SDS011;11484;50.858;4.384;2023-05-19T08:34:22;7.30;;;4.78;;
22634;SDS011;11484;50.858;4.384;2023-05-19T08:36:48;7.25;;;5.20;;
22634;SDS011;11484;50.858;4.384;2023-05-19T08:39:14;6.25;;;4.10;;
22634;SDS011;11484;50.858;4.384;2023-05-19T08:41:42;7.57;;;4.60;;
22634;SDS011;11484;50.858;4.384;2023-05-19T08:44:07;5.10;;;4.38;;
22634;SDS011;11484;50.858;4.384;2023-05-19T08:46:33;8.23;;;3.90;;
22634;SDS011;11484;50.858;4.384;2023-05-19T08:49:03;7.30;;;3.95;;
22634;SDS011;11484;50.858;4.384;2023-05-19T08:54:15;7.38;;;4.43;;
22634;SDS011;11484;50.858;4.384;2023-05-19T08:56:42;5.18;;;3.40;;
22634;SDS011;11484;50.858;4.384;2023-05-19T08:59:10;6.43;;;3.40;;
22634;SDS011;11484;50.858;4.384;2023-05-19T09:01:43;5.32;;;3.13;;
22634;SDS011;11484;50.858;4.384;2023-05-19T09:04:10;6.07;;;4.13;;
22634;SDS011;11484;50.858;4.384;2023-05-19T09:06:36;4.70;;;3.10;;
22634;SDS011;11484;50.858;4.384;2023-05-19T09:09:05;4.90;;;3.20;;
22634;SDS011;11484;50.858;4.384;2023-05-19T09:11:31;4.95;;;3.20;;
22634;SDS011;11484;50.858;4.384;2023-05-19T09:13:58;5.95;;;3.38;;
22634;SDS011;11484;50.858;4.384;2023-05-19T09:16:24;6.35;;;2.88;;
22634;SDS011;11484;50.858;4.384;2023-05-19T09:18:53;6.53;;;3.35;;
22634;SDS011;11484;50.858;4.384;2023-05-19T09:21:25;6.45;;;3.20;;
22634;SDS011;11484;50.858;4.384;2023-05-19T09:23:54;5.82;;;3.30;;
22634;SDS011;11484;50.858;4.384;2023-05-19T09:26:21;7.43;;;2.60;;
22634;SDS011;11484;50.858;4.384;2023-05-19T09:28:47;5.65;;;2.63;;
22634;SDS011;11484;50.858;4.384;2023-05-19T09:31:13;6.20;;;2.58;;
22634;SDS011;11484;50.858;4.384;2023-05-19T09:33:39;4.10;;;2.42;;
22634;SDS011;11484;50.858;4.384;2023-05-19T09:36:09;5.43;;;2.50;;
22634;SDS011;11484;50.858;4.384;2023-05-19T09:38:36;5.38;;;2.50;;
22634;SDS011;11484;50.858;4.384;2023-05-19T09:41:02;4.68;;;2.10;;
22634;SDS011;11484;50.858;4.384;2023-05-19T09:43:30;6.07;;;2.88;;
22634;SDS011;11484;50.858;4.384;2023-05-19T09:48:28;4.88;;;2.20;;
22634;SDS011;11484;50.858;4.384;2023-05-19T09:50:54;4.82;;;2.58;;
22634;SDS011;11484;50.858;4.384;2023-05-19T09:53:21;6.05;;;1.92;;
22634;SDS011;11484;50.858;4.384;2023-05-19T09:55:48;5.18;;;2.40;;
22634;SDS011;11484;50.858;4.384;2023-05-19T09:58:15;4.47;;;2.15;;
22634;SDS011;11484;50.858;4.384;2023-05-19T10:00:42;4.80;;;2.55;;
22634;SDS011;11484;50.858;4.384;2023-05-19T10:03:09;3.38;;;1.83;;
22634;SDS011;11484;50.858;4.384;2023-05-19T10:05:36;5.55;;;2.30;;
22634;SDS011;11484;50.858;4.384;2023-05-19T10:08:02;4.90;;;1.70;;
22634;SDS011;11484;50.858;4.384;2023-05-19T10:10:31;4.88;;;2.13;;
22634;SDS011;11484;50.858;4.384;2023-05-19T10:12:58;5.55;;;2.00;;
22634;SDS011;11484;50.858;4.384;2023-05-19T10:15:24;5.05;;;1.95;;
22634;SDS011;11484;50.858;4.384;2023-05-19T10:17:51;4.82;;;2.30;;
22634;SDS011;11484;50.858;4.384;2023-05-19T10:20:17;7.95;;;2.22;;
22634;SDS011;11484;50.858;4.384;2023-05-19T10:22:43;6.55;;;2.08;;
22634;SDS011;11484;50.858;4.384;2023-05-19T10:25:10;4.40;;;1.65;;
22634;SDS011;11484;50.858;4.384;2023-05-19T10:27:49;5.28;;;2.00;;
22634;SDS011;11484;50.858;4.384;2023-05-19T10:30:55;3.92;;;2.03;;
22634;SDS011;11484;50.858;4.384;2023-05-19T10:33:15;3.92;;;1.85;;
22634;SDS011;11484;50.858;4.384;2023-05-19T10:38:33;8.10;;;1.63;;
22634;SDS011;11484;50.858;4.384;2023-05-19T10:43:57;8.43;;;2.40;;
22634;SDS011;11484;50.858;4.384;2023-05-19T10:46:41;5.85;;;2.15;;
22634;SDS011;11484;50.858;4.384;2023-05-19T10:49:07;4.70;;;1.70;;
22634;SDS011;11484;50.858;4.384;2023-05-19T10:51:33;6.40;;;2.80;;
22634;SDS011;11484;50.858;4.384;2023-05-19T10:54:09;5.90;;;2.67;;
22634;SDS011;11484;50.858;4.384;2023-05-19T10:56:38;5.38;;;2.40;;
22634;SDS011;11484;50.858;4.384;2023-05-19T10:59:06;5.17;;;2.70;;
22634;SDS011;11484;50.858;4.384;2023-05-19T11:01:35;6.43;;;2.60;;
22634;SDS011;11484;50.858;4.384;2023-05-19T11:04:06;6.55;;;2.53;;
22634;SDS011;11484;50.858;4.384;2023-05-19T11:06:36;6.57;;;2.20;;
22634;SDS011;11484;50.858;4.384;2023-05-19T11:14:20;5.57;;;2.47;;
22634;SDS011;11484;50.858;4.384;2023-05-19T11:16:51;6.60;;;3.03;;
22634;SDS011;11484;50.858;4.384;2023-05-19T11:19:30;7.60;;;3.03;;
22634;SDS011;11484;50.858;4.384;2023-05-19T11:22:07;3.97;;;2.83;;
22634;SDS011;11484;50.858;4.384;2023-05-19T11:24:43;4.72;;;2.50;;
22634;SDS011;11484;50.858;4.384;2023-05-19T11:27:26;4.38;;;2.38;;
22634;SDS011;11484;50.858;4.384;2023-05-19T11:29:55;5.35;;;2.92;;
22634;SDS011;11484;50.858;4.384;2023-05-19T11:32:26;6.28;;;2.53;;
22634;SDS011;11484;50.858;4.384;2023-05-19T11:34:54;7.80;;;2.50;;
22634;SDS011;11484;50.858;4.384;2023-05-19T11:37:21;4.45;;;2.60;;
22634;SDS011;11484;50.858;4.384;2023-05-19T11:39:47;5.47;;;2.70;;
22634;SDS011;11484;50.858;4.384;2023-05-19T11:42:13;7.53;;;2.58;;
22634;SDS011;11484;50.858;4.384;2023-05-19T11:44:39;8.35;;;2.90;;
22634;SDS011;11484;50.858;4.384;2023-05-19T11:47:05;3.95;;;2.50;;
22634;SDS011;11484;50.858;4.384;2023-05-19T11:49:33;6.30;;;2.42;;
22634;SDS011;11484;50.858;4.384;2023-05-19T11:51:59;4.22;;;2.45;;
22634;SDS011;11484;50.858;4.384;2023-05-19T11:54:29;5.10;;;2.50;;
22634;SDS011;11484;50.858;4.384;2023-05-19T11:56:56;6.35;;;2.80;;
22634;SDS011;11484;50.858;4.384;2023-05-19T11:59:32;7.47;;;2.88;;
22634;SDS011;11484;50.858;4.384;2023-05-19T12:02:14;4.38;;;2.70;;
22634;SDS011;11484;50.858;4.384;2023-05-19T12:04:41;4.53;;;2.50;;
22634;SDS011;11484;50.858;4.384;2023-05-19T12:07:07;9.10;;;2.30;;
22634;SDS011;11484;50.858;4.384;2023-05-19T12:09:36;6.30;;;3.03;;
22634;SDS011;11484;50.858;4.384;2023-05-19T12:12:02;5.68;;;2.70;;
22634;SDS011;11484;50.858;4.384;2023-05-19T12:14:28;4.85;;;3.10;;
22634;SDS011;11484;50.858;4.384;2023-05-19T12:16:58;5.13;;;2.60;;
22634;SDS011;11484;50.858;4.384;2023-05-19T12:19:33;5.60;;;2.45;;
22634;SDS011;11484;50.858;4.384;2023-05-19T12:21:59;4.20;;;2.72;;
22634;SDS011;11484;50.858;4.384;2023-05-19T12:24:25;9.05;;;2.95;;
22634;SDS011;11484;50.858;4.384;2023-05-19T12:26:51;6.25;;;4.05;;
22634;SDS011;11484;50.858;4.384;2023-05-19T12:29:16;3.92;;;2.15;;
22634;SDS011;11484;50.858;4.384;2023-05-19T12:31:44;6.75;;;2.80;;
22634;SDS011;11484;50.858;4.384;2023-05-19T12:34:11;4.25;;;1.98;;
22634;SDS011;11484;50.858;4.384;2023-05-19T12:36:37;5.53;;;2.95;;
22634;SDS011;11484;50.858;4.384;2023-05-19T12:39:05;6.97;;;2.15;;
22634;SDS011;11484;50.858;4.384;2023-05-19T12:41:31;6.07;;;2.47;;
22634;SDS011;11484;50.858;4.384;2023-05-19T12:43:58;5.40;;;2.17;;
22634;SDS011;11484;50.858;4.384;2023-05-19T12:46:24;5.55;;;2.30;;
22634;SDS011;11484;50.858;4.384;2023-05-19T12:48:53;6.32;;;2.35;;
22634;SDS011;11484;50.858;4.384;2023-05-19T12:51:24;5.32;;;1.90;;
22634;SDS011;11484;50.858;4.384;2023-05-19T12:53:50;4.85;;;2.33;;
22634;SDS011;11484;50.858;4.384;2023-05-19T12:56:16;4.93;;;1.98;;
22634;SDS011;11484;50.858;4.384;2023-05-19T12:58:42;6.28;;;2.20;;
22634;SDS011;11484;50.858;4.384;2023-05-19T13:01:14;6.50;;;2.13;;
22634;SDS011;11484;50.858;4.384;2023-05-19T13:03:41;3.58;;;2.28;;
22634;SDS011;11484;50.858;4.384;2023-05-19T13:06:07;3.05;;;1.90;;
22634;SDS011;11484;50.858;4.384;2023-05-19T13:08:33;4.85;;;1.98;;
22634;SDS011;11484;50.858;4.384;2023-05-19T13:10:59;4.25;;;2.30;;
22634;SDS011;11484;50.858;4.384;2023-05-19T13:13:25;3.72;;;1.90;;
22634;SDS011;11484;50.858;4.384;2023-05-19T13:15:51;3.72;;;2.00;;
22634;SDS011;11484;50.858;4.384;2023-05-19T13:18:17;3.92;;;2.10;;
22634;SDS011;11484;50.858;4.384;2023-05-19T13:20:44;3.92;;;1.92;;
22634;SDS011;11484;50.858;4.384;2023-05-19T13:23:11;3.35;;;2.08;;
22634;SDS011;11484;50.858;4.384;2023-05-19T13:25:38;5.80;;;2.20;;
22634;SDS011;11484;50.858;4.384;2023-05-19T13:28:05;3.63;;;1.77;;
22634;SDS011;11484;50.858;4.384;2023-05-19T13:30:31;5.30;;;2.05;;
22634;SDS011;11484;50.858;4.384;2023-05-19T13:33:02;5.15;;;2.00;;
22634;SDS011;11484;50.858;4.384;2023-05-19T13:35:28;5.30;;;1.92;;
22634;SDS011;11484;50.858;4.384;2023-05-19T13:37:56;5.72;;;1.98;;
22634;SDS011;11484;50.858;4.384;2023-05-19T13:40:22;3.35;;;2.00;;
22634;SDS011;11484;50.858;4.384;2023-05-19T13:42:48;5.20;;;1.77;;
22634;SDS011;11484;50.858;4.384;2023-05-19T13:45:13;5.97;;;2.03;;
22634;SDS011;11484;50.858;4.384;2023-05-19T13:47:39;3.88;;;2.10;;
22634;SDS011;11484;50.858;4.384;2023-05-19T13:50:05;4.90;;;2.20;;
22634;SDS011;11484;50.858;4.384;2023-05-19T13:52:31;4.82;;;2.22;;
22634;SDS011;11484;50.858;4.384;2023-05-19T13:54:57;6.90;;;2.78;;
22634;SDS011;11484;50.858;4.384;2023-05-19T13:57:23;6.35;;;2.65;;
22634;SDS011;11484;50.858;4.384;2023-05-19T13:59:50;3.65;;;2.17;;
22634;SDS011;11484;50.858;4.384;2023-05-19T14:02:16;5.45;;;2.65;;
22634;SDS011;11484;50.858;4.384;2023-05-19T14:04:43;6.65;;;2.35;;
22634;SDS011;11484;50.858;4.384;2023-05-19T14:07:08;6.95;;;2.30;;
22634;SDS011;11484;50.858;4.384;2023-05-19T14:09:34;3.67;;;2.10;;
22634;SDS011;11484;50.858;4.384;2023-05-19T14:12:00;5.32;;;2.17;;
22634;SDS011;11484;50.858;4.384;2023-05-19T14:14:27;4.57;;;2.17;;
22634;SDS011;11484;50.858;4.384;2023-05-19T14:16:53;4.00;;;2.13;;
22634;SDS011;11484;50.858;4.384;2023-05-19T14:19:19;4.65;;;2.03;;
22634;SDS011;11484;50.858;4.384;2023-05-19T14:21:44;2.75;;;1.90;;
22634;SDS011;11484;50.858;4.384;2023-05-19T14:24:10;6.63;;;2.30;;
22634;SDS011;11484;50.858;4.384;2023-05-19T14:26:35;4.93;;;1.80;;
22634;SDS011;11484;50.858;4.384;2023-05-19T14:29:01;2.72;;;1.70;;
22634;SDS011;11484;50.858;4.384;2023-05-19T14:31:27;5.68;;;1.77;;
22634;SDS011;11484;50.858;4.384;2023-05-19T14:33:53;6.38;;;2.17;;
22634;SDS011;11484;50.858;4.384;2023-05-19T14:36:21;6.63;;;1.90;;
22634;SDS011;11484;50.858;4.384;2023-05-19T14:38:47;6.65;;;2.42;;
22634;SDS011;11484;50.858;4.384;2023-05-19T14:41:13;6.13;;;2.40;;
22634;SDS011;11484;50.858;4.384;2023-05-19T14:43:38;6.40;;;3.05;;
22634;SDS011;11484;50.858;4.384;2023-05-19T14:46:06;5.13;;;1.70;;
22634;SDS011;11484;50.858;4.384;2023-05-19T14:48:31;6.10;;;1.80;;
22634;SDS011;11484;50.858;4.384;2023-05-19T14:50:58;3.00;;;1.65;;
22634;SDS011;11484;50.858;4.384;2023-05-19T14:53:25;3.78;;;1.73;;
22634;SDS011;11484;50.858;4.384;2023-05-19T14:55:51;9.80;;;2.30;;
22634;SDS011;11484;50.858;4.384;2023-05-19T14:58:17;4.30;;;1.88;;
22634;SDS011;11484;50.858;4.384;2023-05-19T15:00:42;4.43;;;1.98;;
22634;SDS011;11484;50.858;4.384;2023-05-19T15:03:08;4.78;;;2.00;;
22634;SDS011;11484;50.858;4.384;2023-05-19T15:05:35;4.57;;;2.33;;
22634;SDS011;11484;50.858;4.384;2023-05-19T15:08:01;5.88;;;1.90;;
22634;SDS011;11484;50.858;4.384;2023-05-19T15:10:27;5.57;;;2.30;;
22634;SDS011;11484;50.858;4.384;2023-05-19T15:12:53;3.60;;;1.65;;
22634;SDS011;11484;50.858;4.384;2023-05-19T15:15:21;7.05;;;1.85;;